createdAt,value
2018-02-13T00:02:21.246Z,68.63
2018-02-13T00:04:48.852Z,70.67
2018-02-13T00:07:16.427Z,71.80
2018-02-13T00:09:44.009Z,68.87
2018-02-13T00:12:11.621Z,65.20
2018-02-13T00:14:39.209Z,67.27
2018-02-13T00:17:06.777Z,66.83
2018-02-13T00:19:34.429Z,71.20
2018-02-13T00:22:02.000Z,71.80
2018-02-13T00:24:29.566Z,69.07
2018-02-13T00:26:57.198Z,68.63
2018-02-13T00:29:24.760Z,71.40
2018-02-13T00:31:52.335Z,67.67
2018-02-13T00:34:20.046Z,63.13
2018-02-13T00:36:47.628Z,61.23
2018-02-13T00:39:15.192Z,63.13
2018-02-13T00:41:42.799Z,63.53
2018-02-13T00:44:10.384Z,61.10
2018-02-13T00:46:37.956Z,75.97
2018-02-13T00:49:05.560Z,77.10
2018-02-13T00:51:33.178Z,78.10
2018-02-13T00:54:00.779Z,71.33
2018-02-13T00:56:28.371Z,70.87
2018-02-13T00:58:55.924Z,66.60
2018-02-13T01:01:23.508Z,65.23
2018-02-13T01:03:51.105Z,61.67
2018-02-13T01:06:18.679Z,67.50
2018-02-13T01:08:46.238Z,60.90
2018-02-13T01:11:13.855Z,59.60
2018-02-13T01:13:41.445Z,56.17
2018-02-13T01:16:09.025Z,47.10
2018-02-13T01:18:36.637Z,44.67
2018-02-13T01:21:04.209Z,41.07
2018-02-13T01:23:31.779Z,39.57
2018-02-13T01:25:59.379Z,40.87
2018-02-13T01:28:26.946Z,46.10
2018-02-13T01:30:54.495Z,42.50
2018-02-13T01:33:22.137Z,41.90
2018-02-13T01:35:49.713Z,39.97
2018-02-13T01:38:17.293Z,39.23
2018-02-13T01:40:44.903Z,44.60
2018-02-13T01:43:12.467Z,44.60
2018-02-13T01:45:40.038Z,41.27
2018-02-13T01:48:07.649Z,44.10
2018-02-13T01:50:35.219Z,43.53
2018-02-13T01:53:02.781Z,40.80
2018-02-13T01:55:30.379Z,47.53
2018-02-13T01:57:57.955Z,44.90
2018-02-13T02:00:25.520Z,43.77
2018-02-13T02:02:53.135Z,48.17
2018-02-13T02:05:20.699Z,44.70
2018-02-13T02:07:48.256Z,47.93
2018-02-13T02:10:15.860Z,48.33
2018-02-13T02:12:43.420Z,51.60
2018-02-13T02:15:11.008Z,46.53
2018-02-13T02:17:38.614Z,47.50
2018-02-13T02:20:06.176Z,52.97
2018-02-13T02:22:33.746Z,50.40
2018-02-13T02:25:01.374Z,51.23
2018-02-13T02:27:28.940Z,51.90
2018-02-13T02:29:56.517Z,54.17
2018-02-13T02:32:24.129Z,55.77
2018-02-13T02:34:51.694Z,54.83
2018-02-13T02:37:19.278Z,58.60
2018-02-13T02:39:46.895Z,55.90
2018-02-13T02:42:14.472Z,55.60
2018-02-13T02:44:42.057Z,58.73
2018-02-13T02:47:09.666Z,54.77
2018-02-13T02:49:37.231Z,57.20
2018-02-13T02:52:04.809Z,54.80
2018-02-13T02:54:32.407Z,53.27
2018-02-13T02:56:59.985Z,51.07
2018-02-13T02:59:27.569Z,52.40
2018-02-13T03:01:55.178Z,53.07
2018-02-13T03:04:22.738Z,54.40
2018-02-13T03:06:50.408Z,55.40
2018-02-13T03:09:18.019Z,52.20
2018-02-13T03:11:45.638Z,45.77
2018-02-13T03:14:13.198Z,43.63
2018-02-13T03:16:40.807Z,43.83
2018-02-13T03:19:08.389Z,40.00
2018-02-13T03:21:35.959Z,39.90
2018-02-13T03:24:03.563Z,38.83
2018-02-13T03:26:31.138Z,40.97
2018-02-13T03:28:58.695Z,41.23
2018-02-13T03:31:26.288Z,38.50
2018-02-13T03:33:53.901Z,40.80
2018-02-13T03:36:21.463Z,41.43
2018-02-13T03:38:49.068Z,39.63
2018-02-13T03:41:16.647Z,44.10
2018-02-13T03:43:44.207Z,41.33
2018-02-13T03:46:11.810Z,40.07
2018-02-13T03:48:39.379Z,42.70
2018-02-13T03:51:06.964Z,41.63
2018-02-13T03:53:34.573Z,47.50
2018-02-13T03:56:02.160Z,43.93
2018-02-13T03:58:29.756Z,41.43
2018-02-13T04:00:57.378Z,43.83
2018-02-13T04:03:25.077Z,46.83
2018-02-13T04:05:52.666Z,45.93
2018-02-13T04:08:20.296Z,48.50
2018-02-13T04:10:47.876Z,47.53
2018-02-13T04:13:15.445Z,45.80
2018-02-13T04:15:43.101Z,46.70
2018-02-13T04:18:10.679Z,44.83
2018-02-13T04:20:38.243Z,46.63
2018-02-13T04:23:05.853Z,48.00
2018-02-13T04:25:33.422Z,48.57
2018-02-13T04:28:00.975Z,58.13
2018-02-13T04:30:28.584Z,59.77
2018-02-13T04:32:56.171Z,61.73
2018-02-13T04:35:23.738Z,61.80
2018-02-13T04:37:51.370Z,64.57
2018-02-13T04:40:18.942Z,58.90
2018-02-13T04:42:46.524Z,53.30
2018-02-13T04:45:14.136Z,53.37
2018-02-13T04:47:41.721Z,52.13
2018-02-13T04:50:09.278Z,49.47
2018-02-13T04:52:36.900Z,47.70
2018-02-13T04:55:04.472Z,47.00
2018-02-13T04:57:32.076Z,47.93
2018-02-13T04:59:59.690Z,49.20
2018-02-13T05:02:27.264Z,45.77
2018-02-13T05:04:54.837Z,48.63
2018-02-13T05:07:22.457Z,39.40
2018-02-13T05:09:50.036Z,41.37
2018-02-13T05:12:17.623Z,42.67
2018-02-13T05:14:45.343Z,43.40
2018-02-13T05:17:12.931Z,45.30
2018-02-13T05:19:40.550Z,48.27
2018-02-13T05:22:08.172Z,50.50
2018-02-13T05:24:35.764Z,50.00
2018-02-13T05:27:03.391Z,49.33
2018-02-13T05:29:31.010Z,58.40
2018-02-13T05:31:58.602Z,62.33
2018-02-13T05:34:26.197Z,69.53
2018-02-13T05:36:53.823Z,71.33
2018-02-13T05:39:21.419Z,58.27
2018-02-13T05:41:49.032Z,71.90
2018-02-13T05:44:16.640Z,81.60
2018-02-13T05:46:44.340Z,69.70
2018-02-13T05:49:11.914Z,71.40
2018-02-13T05:51:39.678Z,72.47
2018-02-13T05:54:07.434Z,81.57
2018-02-13T05:56:35.026Z,87.57
2018-02-13T05:59:02.652Z,71.37
2018-02-13T06:01:30.239Z,66.43
2018-02-13T06:03:57.822Z,73.37
2018-02-13T06:06:25.443Z,74.70
2018-02-13T06:08:53.012Z,77.03
2018-02-13T06:11:20.597Z,69.43
2018-02-13T06:13:48.204Z,80.73
2018-02-13T06:16:15.769Z,70.73
2018-02-13T06:18:43.351Z,62.20
2018-02-13T06:21:10.963Z,68.80
2018-02-13T06:23:38.540Z,62.17
2018-02-13T06:26:06.111Z,75.77
2018-02-13T06:28:33.738Z,63.23
2018-02-13T06:31:01.333Z,55.13
2018-02-13T06:33:28.910Z,53.80
2018-02-13T06:35:56.515Z,54.80
2018-02-13T06:38:24.089Z,56.80
2018-02-13T06:40:51.664Z,50.87
2018-02-13T06:43:19.280Z,50.17
2018-02-13T06:45:46.852Z,51.67
2018-02-13T06:48:14.444Z,43.87
2018-02-13T06:50:42.051Z,42.10
2018-02-13T06:53:09.641Z,86.10
2018-02-13T06:55:37.212Z,56.47
2018-02-13T06:58:04.823Z,46.30
2018-02-13T07:00:32.427Z,47.70
2018-02-13T07:03:00.020Z,42.80
2018-02-13T07:05:27.693Z,44.83
2018-02-13T07:07:55.279Z,50.57
2018-02-13T07:10:22.842Z,43.33
2018-02-13T07:12:50.585Z,43.57
2018-02-13T07:15:18.155Z,47.63
2018-02-13T07:17:45.727Z,42.90
2018-02-13T07:20:13.339Z,38.47
2018-02-13T07:22:40.949Z,37.43
2018-02-13T07:25:08.524Z,31.53
2018-02-13T07:27:36.137Z,34.27
2018-02-13T07:30:03.697Z,34.00
2018-02-13T07:32:31.275Z,34.70
2018-02-13T07:34:58.888Z,38.07
2018-02-13T07:37:26.454Z,36.00
2018-02-13T07:39:54.038Z,39.67
2018-02-13T07:42:21.660Z,37.33
2018-02-13T07:44:49.227Z,35.00
2018-02-13T07:47:16.821Z,34.30
2018-02-13T07:49:44.481Z,43.80
2018-02-13T07:52:12.070Z,43.10
2018-02-13T07:54:39.660Z,51.53
2018-02-13T07:57:07.281Z,58.30
2018-02-13T07:59:34.881Z,57.87
2018-02-13T08:02:02.477Z,44.10
2018-02-13T08:04:30.109Z,57.23
2018-02-13T08:06:57.691Z,45.70
2018-02-13T08:09:25.313Z,42.57
2018-02-13T08:11:52.930Z,44.70
2018-02-13T08:14:20.525Z,39.80
2018-02-13T08:16:48.114Z,39.33
2018-02-13T08:19:15.929Z,40.33
2018-02-13T08:21:43.531Z,38.10
2018-02-13T08:24:11.132Z,35.60
2018-02-13T08:26:38.806Z,37.50
2018-02-13T08:29:06.401Z,31.63
2018-02-13T08:31:33.981Z,34.37
2018-02-13T08:34:01.606Z,29.73
2018-02-13T08:36:29.202Z,31.83
2018-02-13T08:38:56.782Z,30.77
2018-02-13T08:41:24.403Z,29.77
2018-02-13T08:43:51.990Z,30.10
2018-02-13T08:46:19.577Z,28.23
2018-02-13T08:48:47.209Z,28.03
2018-02-13T08:51:14.779Z,22.90
2018-02-13T08:53:42.351Z,23.57
2018-02-13T08:56:09.984Z,22.60
2018-02-13T08:58:37.567Z,24.33
2018-02-13T09:01:05.162Z,22.70
2018-02-13T09:03:32.784Z,20.17
2018-02-13T09:06:00.383Z,20.00
2018-02-13T09:08:27.955Z,15.43
2018-02-13T09:10:55.572Z,13.87
2018-02-13T09:13:23.149Z,14.00
2018-02-13T09:15:50.721Z,13.03
2018-02-13T09:18:18.350Z,12.80
2018-02-13T09:20:46.000Z,15.47
2018-02-13T09:23:13.586Z,12.30
2018-02-13T09:25:41.198Z,14.80
2018-02-13T09:28:08.785Z,15.63
2018-02-13T09:30:36.355Z,12.83
2018-02-13T09:33:03.959Z,11.67
2018-02-13T09:35:31.533Z,13.13
2018-02-13T09:37:59.103Z,10.47
2018-02-13T09:40:26.718Z,10.37
2018-02-13T09:42:54.290Z,12.20
2018-02-13T09:45:21.884Z,12.43
2018-02-13T09:47:49.487Z,11.53
2018-02-13T09:50:17.051Z,13.13
2018-02-13T09:52:44.651Z,12.93
2018-02-13T09:55:12.508Z,11.70
2018-02-13T09:57:40.103Z,9.97
2018-02-13T10:00:07.727Z,11.37
2018-02-13T10:02:35.341Z,15.00
2018-02-13T10:05:02.945Z,10.40
2018-02-13T10:07:30.518Z,9.97
2018-02-13T10:09:58.144Z,10.53
2018-02-13T10:12:25.713Z,11.50
2018-02-13T10:14:53.293Z,10.63
2018-02-13T10:17:20.958Z,11.13
2018-02-13T10:19:48.604Z,11.67
2018-02-13T10:22:16.243Z,10.90
2018-02-13T10:24:43.853Z,11.13
2018-02-13T10:27:12.370Z,11.53
2018-02-13T10:29:39.944Z,10.90
2018-02-13T10:32:07.647Z,8.83
2018-02-13T10:34:35.222Z,10.67
2018-02-13T10:37:02.807Z,10.03
2018-02-13T10:39:30.448Z,8.23
2018-02-13T10:41:58.038Z,10.40
2018-02-13T10:44:25.625Z,9.33
2018-02-13T10:46:53.242Z,10.50
2018-02-13T10:49:20.857Z,9.60
2018-02-13T10:51:48.441Z,8.83
2018-02-13T10:54:16.064Z,9.17
2018-02-13T10:56:43.651Z,8.87
2018-02-13T10:59:11.230Z,8.73
2018-02-13T11:01:38.863Z,7.13
2018-02-13T11:04:06.411Z,9.30
2018-02-13T11:06:33.968Z,9.70
2018-02-13T11:09:01.575Z,9.60
2018-02-13T11:11:29.157Z,10.10
2018-02-13T11:13:56.756Z,11.50
2018-02-13T11:16:24.363Z,8.70
2018-02-13T11:18:51.936Z,9.83
2018-02-13T11:21:19.497Z,9.23
2018-02-13T11:23:47.151Z,8.70
2018-02-13T11:26:14.831Z,8.07
2018-02-13T11:28:42.385Z,9.47
2018-02-13T11:31:10.007Z,12.40
2018-02-13T11:33:37.641Z,9.90
2018-02-13T11:36:05.223Z,10.97
2018-02-13T11:38:32.887Z,12.80
2018-02-13T11:41:00.476Z,11.57
2018-02-13T11:43:28.044Z,11.60
2018-02-13T11:45:55.658Z,15.17
2018-02-13T11:48:23.216Z,9.90
2018-02-13T11:50:50.780Z,9.63
2018-02-13T11:53:18.382Z,11.80
2018-02-13T11:55:45.946Z,9.70
2018-02-13T11:58:13.509Z,9.93
2018-02-13T12:00:41.121Z,9.37
2018-02-13T12:03:08.671Z,10.47
2018-02-13T12:05:36.260Z,11.47
2018-02-13T12:08:03.862Z,13.53
2018-02-13T12:10:31.437Z,13.70
2018-02-13T12:12:59.029Z,12.20
2018-02-13T12:15:26.640Z,12.93
2018-02-13T12:17:54.230Z,11.03
2018-02-13T12:20:21.787Z,9.40
2018-02-13T12:22:49.379Z,10.43
2018-02-13T12:25:28.633Z,9.90
2018-02-13T12:27:56.265Z,9.43
2018-02-13T12:30:23.849Z,9.30
2018-02-13T12:32:51.414Z,11.40
2018-02-13T12:35:19.026Z,11.80
2018-02-13T12:37:46.575Z,9.60
2018-02-13T12:40:14.162Z,11.87
2018-02-13T12:42:41.760Z,9.87
2018-02-13T12:45:09.351Z,6.67
2018-02-13T12:47:36.913Z,11.17
2018-02-13T12:50:05.430Z,12.80
2018-02-13T12:52:32.993Z,8.73
2018-02-13T12:55:00.559Z,13.13
2018-02-13T12:57:28.159Z,10.27
2018-02-13T12:59:55.712Z,11.90
2018-02-13T13:02:23.383Z,14.43
2018-02-13T13:04:51.052Z,12.30
2018-02-13T13:07:18.626Z,12.70
2018-02-13T13:09:46.196Z,12.87
2018-02-13T13:12:13.781Z,13.43
2018-02-13T13:14:41.340Z,13.77
2018-02-13T13:17:08.903Z,14.60
2018-02-13T13:19:36.537Z,12.70
2018-02-13T13:22:04.094Z,12.17
2018-02-13T13:24:31.661Z,10.47
2018-02-13T13:26:59.238Z,14.07
2018-02-13T13:29:26.798Z,15.30
2018-02-13T13:31:54.363Z,14.77
2018-02-13T13:34:22.024Z,15.50
2018-02-13T13:36:49.578Z,16.50
2018-02-13T13:39:17.144Z,14.17
2018-02-13T13:41:44.774Z,16.00
2018-02-13T13:44:12.335Z,13.73
2018-02-13T13:46:39.888Z,15.87
2018-02-13T13:49:07.487Z,9.27
2018-02-13T13:51:35.079Z,17.17
2018-02-13T13:54:02.661Z,16.10
2018-02-13T13:56:30.246Z,10.30
2018-02-13T13:58:57.806Z,16.30
2018-02-13T14:01:25.398Z,15.90
2018-02-13T14:03:52.997Z,13.97
2018-02-13T14:06:20.561Z,14.13
2018-02-13T14:08:49.096Z,15.63
2018-02-13T14:11:16.676Z,13.97
2018-02-13T14:13:44.305Z,15.10
2018-02-13T14:16:12.075Z,15.10
2018-02-13T14:18:39.697Z,15.17
2018-02-13T14:21:07.693Z,13.00
2018-02-13T14:23:35.246Z,16.10
2018-02-13T14:26:02.864Z,14.33
2018-02-13T14:28:30.544Z,12.43
2018-02-13T14:30:58.261Z,12.80
2018-02-13T14:33:25.854Z,13.87
2018-02-13T14:35:53.429Z,14.77
2018-02-13T14:38:21.031Z,15.63
2018-02-13T14:40:48.630Z,11.70
2018-02-13T14:43:16.187Z,15.10
2018-02-13T14:45:43.817Z,15.50
2018-02-13T14:48:11.462Z,15.27
2018-02-13T14:50:39.023Z,10.47
2018-02-13T14:53:06.640Z,10.83
2018-02-13T14:55:34.242Z,13.77
2018-02-13T14:58:01.832Z,12.80
2018-02-13T15:00:29.391Z,13.50
2018-02-13T15:02:56.978Z,12.70
2018-02-13T15:05:24.530Z,14.50
2018-02-13T15:07:52.100Z,9.43
2018-02-13T15:10:19.720Z,11.23
2018-02-13T15:12:47.314Z,16.17
2018-02-13T15:15:17.239Z,15.80
2018-02-13T15:17:47.277Z,13.23
2018-02-13T15:20:14.839Z,15.20
2018-02-13T15:22:42.394Z,12.80
2018-02-13T15:25:09.996Z,14.37
2018-02-13T15:27:37.568Z,14.02
2018-02-13T15:30:05.150Z,16.30
2018-02-13T15:32:32.811Z,15.30
2018-02-13T15:35:00.376Z,15.60
2018-02-13T15:37:27.909Z,14.70
2018-02-13T15:39:55.520Z,15.43
2018-02-13T15:42:23.117Z,16.07
2018-02-13T15:44:50.685Z,16.03
2018-02-13T15:47:18.864Z,16.62
2018-02-13T15:49:46.458Z,15.73
2018-02-13T15:52:14.011Z,15.90
2018-02-13T15:54:41.623Z,16.60
2018-02-13T15:57:09.182Z,14.77
2018-02-13T15:59:36.769Z,16.17
2018-02-13T16:02:04.376Z,14.90
2018-02-13T16:04:31.945Z,13.10
2018-02-13T16:06:59.521Z,14.97
2018-02-13T16:09:27.123Z,15.17
2018-02-13T16:11:54.670Z,16.77
2018-02-13T16:14:22.220Z,14.87
2018-02-13T16:16:49.834Z,14.50
2018-02-13T16:19:17.404Z,13.70
2018-02-13T16:21:44.964Z,12.37
2018-02-13T16:24:12.546Z,13.97
2018-02-13T16:26:40.207Z,13.00
2018-02-13T16:29:07.957Z,15.70
2018-02-13T16:31:35.609Z,16.70
2018-02-13T16:34:03.177Z,13.40
2018-02-13T16:36:30.721Z,15.43
2018-02-13T16:38:58.321Z,13.43
2018-02-13T16:41:25.908Z,13.30
2018-02-13T16:43:53.466Z,14.10
2018-02-13T16:46:21.313Z,12.50
2018-02-13T16:48:48.884Z,16.77
2018-02-13T16:51:16.439Z,13.43
2018-02-13T16:53:44.036Z,14.03
2018-02-13T16:56:11.582Z,16.90
2018-02-13T16:58:39.158Z,20.23
2018-02-13T17:01:06.785Z,25.27
2018-02-13T17:03:34.382Z,19.10
2018-02-13T17:06:01.939Z,18.30
2018-02-13T17:08:29.531Z,18.57
2018-02-13T17:10:57.111Z,23.37
2018-02-13T17:13:24.708Z,33.53
2018-02-13T17:15:52.293Z,27.20
2018-02-13T17:18:19.855Z,23.80
2018-02-13T17:20:47.422Z,14.93
2018-02-13T17:23:15.012Z,17.97
2018-02-13T17:25:42.612Z,129.50
2018-02-13T17:28:10.163Z,20.13
2018-02-13T17:30:37.775Z,31.03
2018-02-13T17:33:05.357Z,22.00
2018-02-13T17:35:32.914Z,16.37
2018-02-13T17:38:00.489Z,19.27
2018-02-13T17:40:28.058Z,13.93
2018-02-13T17:42:55.606Z,17.40
2018-02-13T17:45:23.198Z,15.10
2018-02-13T17:47:50.775Z,15.60
2018-02-13T17:50:18.339Z,16.87
2018-02-13T17:52:46.044Z,15.48
2018-02-13T17:55:13.611Z,15.57
2018-02-13T17:57:41.171Z,15.30
2018-02-13T18:00:08.772Z,12.80
2018-02-13T18:02:36.406Z,14.00
2018-02-13T18:05:03.971Z,14.00
2018-02-13T18:07:31.605Z,21.50
2018-02-13T18:09:59.185Z,14.43
2018-02-13T18:12:26.747Z,30.40
2018-02-13T18:14:54.342Z,15.50
2018-02-13T18:17:21.914Z,10.90
2018-02-13T18:19:49.481Z,12.57
2018-02-13T18:22:17.076Z,11.50
2018-02-13T18:24:44.669Z,12.77
2018-02-13T18:27:12.227Z,10.00
2018-02-13T18:29:39.832Z,10.00
2018-02-13T18:32:07.377Z,7.83
2018-02-13T18:34:34.924Z,7.90
2018-02-13T18:37:02.757Z,8.53
2018-02-13T18:39:30.331Z,10.73
2018-02-13T18:41:57.913Z,8.10
2018-02-13T18:44:25.513Z,7.30
2018-02-13T18:46:53.082Z,6.60
2018-02-13T18:49:20.674Z,8.37
2018-02-13T18:51:49.284Z,8.73
2018-02-13T18:54:17.826Z,7.60
2018-02-13T18:56:45.900Z,7.40
2018-02-13T18:59:13.502Z,7.50
2018-02-13T19:01:41.070Z,7.43
2018-02-13T19:04:08.654Z,8.20
2018-02-13T19:06:36.266Z,8.00
2018-02-13T19:09:06.303Z,6.03
2018-02-13T19:11:37.122Z,8.40
2018-02-13T19:14:08.181Z,15.33
2018-02-13T19:16:38.843Z,4.43
2018-02-13T19:19:09.964Z,5.70
2018-02-13T19:21:37.745Z,6.20
2018-02-13T19:24:05.430Z,7.40
2018-02-13T19:26:33.045Z,7.97
2018-02-13T19:29:00.625Z,6.30
2018-02-13T19:31:28.203Z,6.40
2018-02-13T19:33:56.973Z,27.00
2018-02-13T19:36:25.526Z,10.50
2018-02-13T19:38:54.269Z,14.63
2018-02-13T19:41:23.682Z,7.60
2018-02-13T19:43:52.463Z,7.37
2018-02-13T19:46:21.448Z,6.47
2018-02-13T19:48:49.952Z,5.40
2018-02-13T19:51:19.167Z,5.90
2018-02-13T19:53:48.144Z,8.20
2018-02-13T19:56:17.036Z,6.53
2018-02-13T19:58:45.453Z,4.50
2018-02-13T20:01:14.430Z,11.37
2018-02-13T20:03:42.899Z,5.80
2018-02-13T20:06:11.112Z,9.57
2018-02-13T20:08:39.441Z,6.50
2018-02-13T20:11:08.282Z,5.53
2018-02-13T20:13:37.428Z,8.20
2018-02-13T20:16:06.366Z,5.87
2018-02-13T20:18:35.422Z,5.17
2018-02-13T20:21:04.196Z,3.40
2018-02-13T20:23:32.843Z,4.37
2018-02-13T20:26:01.862Z,3.50
2018-02-13T20:28:30.192Z,3.73
2018-02-13T20:30:58.041Z,5.77
2018-02-13T20:33:25.981Z,3.90
2018-02-13T20:35:53.645Z,2.90
2018-02-13T20:38:21.637Z,4.60
2018-02-13T20:40:50.075Z,6.90
2018-02-13T20:43:18.996Z,10.70
2018-02-13T20:45:46.843Z,3.97
2018-02-13T20:48:14.919Z,8.53
2018-02-13T20:50:43.312Z,10.00
2018-02-13T20:53:11.569Z,8.10
2018-02-13T20:55:39.153Z,5.47
2018-02-13T20:58:06.955Z,8.97
2018-02-13T21:00:34.917Z,5.10
2018-02-13T21:03:02.530Z,4.70
2018-02-13T21:05:30.214Z,4.20
2018-02-13T21:07:57.760Z,4.07
2018-02-13T21:10:25.353Z,4.63
2018-02-13T21:12:52.969Z,5.77
2018-02-13T21:15:20.535Z,3.97
2018-02-13T21:17:48.176Z,6.73
2018-02-13T21:20:15.747Z,4.55
2018-02-13T21:22:43.320Z,7.80
2018-02-13T21:25:11.157Z,6.40
2018-02-13T21:27:38.707Z,6.00
2018-02-13T21:30:06.589Z,5.97
2018-02-13T21:32:34.192Z,9.47
2018-02-13T21:35:01.838Z,3.70
2018-02-13T21:37:29.410Z,5.37
2018-02-13T21:39:57.027Z,5.07
2018-02-13T21:42:24.576Z,6.20
2018-02-13T21:44:52.177Z,6.97
2018-02-13T21:47:19.766Z,7.37
2018-02-13T21:49:47.404Z,7.80
2018-02-13T21:52:14.940Z,7.83
2018-02-13T21:54:42.526Z,8.20
2018-02-13T21:57:10.095Z,7.03
2018-02-13T21:59:37.659Z,7.73
2018-02-13T22:02:05.226Z,7.03
2018-02-13T22:04:32.763Z,9.03
2018-02-13T22:07:00.316Z,9.10
2018-02-13T22:09:27.913Z,8.33
2018-02-13T22:11:55.460Z,7.90
2018-02-13T22:14:23.085Z,8.20
2018-02-13T22:16:50.669Z,9.20
2018-02-13T22:19:18.245Z,17.13
2018-02-13T22:21:45.875Z,9.47
2018-02-13T22:24:13.467Z,10.97
2018-02-13T22:26:41.037Z,18.40
2018-02-13T22:29:08.571Z,11.73
2018-02-13T22:31:36.148Z,11.10
2018-02-13T22:34:03.716Z,9.70
2018-02-13T22:36:31.266Z,9.30
2018-02-13T22:38:58.846Z,10.70
2018-02-13T22:41:26.445Z,10.50
2018-02-13T22:43:54.059Z,10.40
2018-02-13T22:46:21.651Z,10.90
2018-02-13T22:48:49.223Z,9.97
2018-02-13T22:51:16.831Z,12.63
2018-02-13T22:53:44.457Z,15.43
2018-02-13T22:56:12.010Z,14.70
2018-02-13T22:58:39.733Z,13.80
2018-02-13T23:01:07.364Z,12.73
2018-02-13T23:03:34.919Z,13.87
2018-02-13T23:06:02.560Z,11.97
2018-02-13T23:08:30.177Z,15.40
2018-02-13T23:10:57.757Z,15.03
2018-02-13T23:13:25.324Z,14.93
2018-02-13T23:15:52.934Z,13.90
2018-02-13T23:18:20.530Z,14.97
2018-02-13T23:20:48.108Z,17.13
2018-02-13T23:23:15.717Z,16.20
2018-02-13T23:25:43.302Z,14.27
2018-02-13T23:28:10.868Z,12.37
2018-02-13T23:30:38.458Z,14.97
2018-02-13T23:33:06.016Z,13.67
2018-02-13T23:35:33.573Z,9.23
2018-02-13T23:38:01.165Z,12.87
2018-02-13T23:40:29.736Z,12.80
2018-02-13T23:42:58.280Z,13.33
2018-02-13T23:45:28.248Z,9.70
2018-02-13T23:47:58.949Z,15.43
2018-02-13T23:50:28.316Z,10.27
2018-02-13T23:52:58.507Z,17.33
2018-02-13T23:55:28.505Z,17.63
2018-02-13T23:57:56.203Z,13.07
